createdAt,value
2019-04-29T00:00:33.088Z,65.41
2019-04-29T00:03:20.424Z,65.36
2019-04-29T00:06:08.157Z,64.20
2019-04-29T00:08:55.838Z,63.96
2019-04-29T00:11:43.328Z,63.12
2019-04-29T00:14:30.943Z,62.83
2019-04-29T00:17:25.574Z,63.87
2019-04-29T00:20:25.522Z,64.22
2019-04-29T00:23:13.184Z,64.25
2019-04-29T00:26:00.851Z,65.20
2019-04-29T00:28:50.510Z,64.81
2019-04-29T00:31:37.809Z,64.91
2019-04-29T00:34:25.360Z,64.90
2019-04-29T00:37:31.957Z,63.21
2019-04-29T00:40:36.898Z,64.23
2019-04-29T00:43:48.935Z,64.23
2019-04-29T00:46:36.619Z,64.99
2019-04-29T00:49:24.297Z,63.60
2019-04-29T00:52:11.727Z,64.47
2019-04-29T00:55:05.456Z,62.69
2019-04-29T00:57:52.874Z,63.26
2019-04-29T01:00:41.970Z,63.51
2019-04-29T01:03:29.666Z,63.07
2019-04-29T01:06:17.062Z,64.66
2019-04-29T01:09:08.550Z,65.24
2019-04-29T01:11:55.961Z,63.96
2019-04-29T01:14:43.425Z,65.23
2019-04-29T01:17:31.261Z,64.00
2019-04-29T01:20:18.749Z,64.16
2019-04-29T01:23:06.274Z,64.93
2019-04-29T01:25:58.014Z,64.73
2019-04-29T01:28:49.778Z,64.11
2019-04-29T01:31:37.100Z,64.78
2019-04-29T01:34:29.355Z,64.46
2019-04-29T01:37:17.061Z,64.80
2019-04-29T01:40:14.039Z,65.39
2019-04-29T01:43:01.445Z,64.78
2019-04-29T01:45:48.729Z,64.08
2019-04-29T01:48:36.597Z,64.36
2019-04-29T01:51:23.756Z,64.61
2019-04-29T01:54:11.228Z,65.15
2019-04-29T01:56:58.724Z,65.43
2019-04-29T01:59:46.270Z,65.44
2019-04-29T02:02:34.199Z,64.01
2019-04-29T02:05:21.332Z,63.80
2019-04-29T02:08:09.069Z,64.39
2019-04-29T02:10:56.798Z,64.78
2019-04-29T02:13:44.420Z,65.33
2019-04-29T02:16:31.941Z,65.44
2019-04-29T02:19:19.629Z,65.09
2019-04-29T02:22:10.851Z,65.90
2019-04-29T02:25:06.517Z,64.84
2019-04-29T02:27:54.028Z,65.96
2019-04-29T02:30:46.346Z,65.97
2019-04-29T02:33:34.349Z,66.29
2019-04-29T02:36:21.879Z,66.86
2019-04-29T02:39:28.061Z,66.53
2019-04-29T02:42:33.658Z,66.77
2019-04-29T02:45:25.640Z,66.52
2019-04-29T02:48:12.869Z,66.38
2019-04-29T02:51:00.663Z,66.17
2019-04-29T02:53:48.351Z,66.46
2019-04-29T02:56:36.433Z,65.97
2019-04-29T02:59:29.421Z,66.07
2019-04-29T03:02:48.474Z,66.33
2019-04-29T03:05:41.571Z,66.32
2019-04-29T03:08:29.321Z,66.29
2019-04-29T03:11:16.905Z,66.52
2019-04-29T03:14:04.372Z,66.82
2019-04-29T03:16:52.487Z,67.29
2019-04-29T03:19:59.479Z,67.27
2019-04-29T03:22:47.075Z,66.16
2019-04-29T03:25:34.393Z,66.83
2019-04-29T03:28:21.762Z,66.57
2019-04-29T03:31:09.135Z,66.12
2019-04-29T03:33:56.590Z,66.75
2019-04-29T03:36:44.021Z,67.25
2019-04-29T03:39:31.483Z,67.18
2019-04-29T03:42:19.020Z,67.15
2019-04-29T03:45:06.625Z,67.49
2019-04-29T03:47:54.246Z,67.00
2019-04-29T03:50:41.889Z,67.48
2019-04-29T03:53:29.781Z,67.76
2019-04-29T03:56:17.354Z,66.82
2019-04-29T03:59:04.749Z,67.48
2019-04-29T04:02:07.461Z,67.34
2019-04-29T04:05:12.303Z,67.34
2019-04-29T04:08:21.927Z,67.16
2019-04-29T04:11:09.555Z,66.61
2019-04-29T04:13:57.011Z,66.82
2019-04-29T04:17:20.004Z,67.14
2019-04-29T04:20:04.547Z,67.27
2019-04-29T04:22:51.922Z,67.06
2019-04-29T04:25:38.955Z,66.36
2019-04-29T04:28:26.597Z,66.78
2019-04-29T04:31:14.062Z,67.24
2019-04-29T04:34:01.786Z,67.19
2019-04-29T04:36:49.141Z,67.20
2019-04-29T04:39:38.151Z,67.09
2019-04-29T04:42:29.567Z,66.77
2019-04-29T04:45:15.394Z,66.72
2019-04-29T04:48:02.414Z,67.33
2019-04-29T04:50:49.866Z,67.29
2019-04-29T04:53:37.068Z,65.93
2019-04-29T04:56:24.823Z,66.06
2019-04-29T04:59:11.961Z,66.67
2019-04-29T05:01:59.146Z,66.64
2019-04-29T05:04:46.631Z,66.65
2019-04-29T05:07:34.688Z,67.23
2019-04-29T05:10:22.332Z,66.85
2019-04-29T05:13:10.062Z,66.22
2019-04-29T05:15:57.831Z,66.03
2019-04-29T05:18:45.512Z,66.29
2019-04-29T05:21:33.032Z,65.80
2019-04-29T05:24:20.547Z,65.22
2019-04-29T05:27:08.656Z,66.05
2019-04-29T05:29:56.437Z,66.13
2019-04-29T05:32:43.850Z,65.11
2019-04-29T05:35:40.060Z,65.25
2019-04-29T05:38:58.279Z,65.75
2019-04-29T05:41:45.533Z,64.89
2019-04-29T05:44:58.563Z,64.69
2019-04-29T05:47:52.297Z,63.72
2019-04-29T05:50:53.246Z,63.65
2019-04-29T05:53:47.736Z,62.60
2019-04-29T05:56:35.608Z,62.13
2019-04-29T05:59:23.019Z,61.86
2019-04-29T06:02:10.932Z,61.32
2019-04-29T06:04:58.070Z,61.36
2019-04-29T06:07:46.528Z,61.78
2019-04-29T06:10:33.761Z,61.36
2019-04-29T06:13:21.610Z,60.32
2019-04-29T06:16:09.008Z,59.71
2019-04-29T06:19:00.361Z,58.48
2019-04-29T06:21:45.823Z,58.29
2019-04-29T06:24:36.886Z,58.27
2019-04-29T06:27:22.575Z,58.15
2019-04-29T06:30:10.016Z,57.97
2019-04-29T06:32:57.345Z,57.59
2019-04-29T06:35:47.368Z,56.78
2019-04-29T06:38:34.248Z,55.69
2019-04-29T06:41:22.074Z,54.42
2019-04-29T06:44:15.904Z,55.21
2019-04-29T06:46:58.773Z,56.17
2019-04-29T06:49:47.484Z,56.84
2019-04-29T06:52:35.153Z,59.06
2019-04-29T06:55:22.556Z,60.50
2019-04-29T06:58:10.129Z,60.32
2019-04-29T07:01:01.154Z,60.36
2019-04-29T07:03:47.207Z,60.20
2019-04-29T07:06:35.174Z,59.38
2019-04-29T07:09:23.189Z,59.44
2019-04-29T07:12:12.592Z,58.78
2019-04-29T07:15:00.128Z,59.05
2019-04-29T07:17:47.420Z,59.30
2019-04-29T07:20:37.228Z,59.32
2019-04-29T07:23:24.376Z,57.71
2019-04-29T07:26:12.004Z,57.12
2019-04-29T07:28:59.654Z,56.53
2019-04-29T07:31:47.790Z,56.50
2019-04-29T07:34:39.352Z,55.97
2019-04-29T07:37:25.190Z,55.88
2019-04-29T07:40:13.500Z,55.60
2019-04-29T07:43:02.828Z,56.27
2019-04-29T07:45:58.796Z,56.83
2019-04-29T07:48:45.514Z,57.53
2019-04-29T07:51:34.826Z,57.63
2019-04-29T07:54:21.685Z,57.37
2019-04-29T07:57:12.447Z,57.98
2019-04-29T07:59:59.196Z,57.92
2019-04-29T08:02:47.274Z,58.87
2019-04-29T08:05:35.091Z,58.06
2019-04-29T08:08:22.909Z,58.48
2019-04-29T08:11:10.401Z,58.08
2019-04-29T08:14:00.068Z,57.48
2019-04-29T08:16:47.484Z,58.08
2019-04-29T08:19:34.898Z,57.82
2019-04-29T08:22:22.854Z,56.17
2019-04-29T08:25:11.871Z,56.91
2019-04-29T08:27:59.401Z,56.01
2019-04-29T08:30:47.368Z,55.05
2019-04-29T08:33:34.673Z,54.43
2019-04-29T08:36:22.196Z,54.56
2019-04-29T08:39:10.297Z,53.81
2019-04-29T08:41:58.861Z,54.60
2019-04-29T08:45:09.499Z,52.30
2019-04-29T08:47:57.208Z,53.41
2019-04-29T08:50:44.415Z,53.27
2019-04-29T08:53:31.849Z,52.33
2019-04-29T08:56:19.496Z,52.03
2019-04-29T08:59:07.113Z,51.84
2019-04-29T09:01:54.438Z,52.73
2019-04-29T09:04:53.298Z,51.88
2019-04-29T09:07:31.352Z,50.69
2019-04-29T09:10:19.286Z,50.76
2019-04-29T09:13:07.602Z,49.34
2019-04-29T09:15:55.097Z,49.64
2019-04-29T09:18:42.717Z,48.83
2019-04-29T09:21:30.412Z,48.66
2019-04-29T09:24:18.125Z,49.07
2019-04-29T09:27:11.258Z,49.30
2019-04-29T09:30:00.505Z,49.58
2019-04-29T09:32:48.524Z,50.37
2019-04-29T09:35:38.634Z,49.73
2019-04-29T09:38:24.837Z,47.94
2019-04-29T09:41:30.594Z,47.73
2019-04-29T09:44:40.335Z,47.37
2019-04-29T09:47:27.793Z,47.58
2019-04-29T09:50:15.583Z,47.14
2019-04-29T09:53:02.725Z,47.45
2019-04-29T09:55:50.279Z,47.03
2019-04-29T09:58:37.702Z,47.35
2019-04-29T10:01:33.185Z,47.64
2019-04-29T10:04:36.358Z,48.33
2019-04-29T10:07:23.731Z,47.14
2019-04-29T10:10:11.428Z,47.71
2019-04-29T10:12:58.944Z,46.99
2019-04-29T10:16:08.989Z,46.93
2019-04-29T10:19:14.324Z,46.60
2019-04-29T10:22:01.654Z,48.60
2019-04-29T10:24:48.687Z,46.68
2019-04-29T10:27:36.042Z,47.12
2019-04-29T10:30:26.809Z,46.15
2019-04-29T10:33:17.534Z,46.37
2019-04-29T10:36:04.402Z,45.19
2019-04-29T10:38:53.529Z,45.87
2019-04-29T10:41:42.843Z,45.02
2019-04-29T10:44:49.351Z,45.92
2019-04-29T10:47:53.564Z,45.32
2019-04-29T10:50:41.959Z,46.63
2019-04-29T10:53:29.698Z,46.40
2019-04-29T10:56:17.270Z,46.00
2019-04-29T10:59:09.154Z,45.24
2019-04-29T11:02:35.061Z,44.76
2019-04-29T11:05:28.254Z,43.65
2019-04-29T11:08:22.744Z,44.36
2019-04-29T11:11:22.151Z,43.90
2019-04-29T11:14:01.662Z,43.39
2019-04-29T11:16:49.735Z,42.81
2019-04-29T11:19:39.828Z,42.77
2019-04-29T11:22:33.967Z,42.85
2019-04-29T11:25:40.571Z,42.66
2019-04-29T11:28:28.949Z,42.32
2019-04-29T11:31:19.043Z,42.45
2019-04-29T11:34:15.967Z,42.92
2019-04-29T11:37:04.214Z,42.71
2019-04-29T11:39:52.154Z,42.89
2019-04-29T11:42:41.735Z,41.25
2019-04-29T11:45:28.822Z,41.37
2019-04-29T11:48:16.479Z,41.15
2019-04-29T11:51:14.182Z,42.74
2019-04-29T11:54:01.796Z,42.61
2019-04-29T11:56:49.825Z,42.75
2019-04-29T11:59:56.177Z,42.52
2019-04-29T12:02:53.285Z,42.40
2019-04-29T12:05:44.965Z,43.46
2019-04-29T12:08:31.809Z,43.10
2019-04-29T12:11:19.813Z,43.64
2019-04-29T12:14:13.341Z,43.04
2019-04-29T12:17:22.924Z,42.11
2019-04-29T12:20:18.522Z,43.27
2019-04-29T12:23:05.991Z,43.88
2019-04-29T12:25:53.807Z,43.92
2019-04-29T12:28:42.695Z,45.16
2019-04-29T12:31:51.121Z,45.75
2019-04-29T12:34:52.675Z,46.03
2019-04-29T12:38:00.624Z,46.42
2019-04-29T12:41:20.696Z,46.70
2019-04-29T12:44:19.691Z,47.56
2019-04-29T12:47:26.359Z,47.28
2019-04-29T12:50:05.933Z,47.17
2019-04-29T12:52:53.638Z,48.21
2019-04-29T12:55:46.107Z,48.69
2019-04-29T12:58:32.273Z,48.47
2019-04-29T13:01:50.825Z,49.67
2019-04-29T13:04:45.142Z,49.21
2019-04-29T13:07:36.038Z,49.90
2019-04-29T13:10:29.569Z,49.74
2019-04-29T13:13:20.327Z,48.69
2019-04-29T13:16:28.815Z,47.92
2019-04-29T13:19:41.398Z,47.76
2019-04-29T13:22:28.974Z,47.50
2019-04-29T13:25:19.659Z,47.02
2019-04-29T13:28:06.028Z,47.38
2019-04-29T13:30:56.931Z,47.90
2019-04-29T13:33:45.974Z,46.65
2019-04-29T13:36:32.691Z,46.78
2019-04-29T13:39:37.898Z,46.66
2019-04-29T13:42:14.861Z,46.73
2019-04-29T13:45:09.468Z,47.60
2019-04-29T13:48:15.951Z,46.49
2019-04-29T13:51:34.480Z,47.22
2019-04-29T13:54:06.580Z,46.68
2019-04-29T13:56:56.682Z,45.81
2019-04-29T13:59:54.653Z,45.73
2019-04-29T14:02:58.395Z,46.41
2019-04-29T14:05:38.023Z,46.23
2019-04-29T14:08:28.720Z,44.99
2019-04-29T14:11:15.062Z,44.83
2019-04-29T14:14:02.693Z,44.71
2019-04-29T14:16:50.097Z,45.25
2019-04-29T14:19:42.499Z,46.32
2019-04-29T14:22:26.885Z,46.69
2019-04-29T14:25:14.849Z,47.83
2019-04-29T14:28:02.471Z,48.29
2019-04-29T14:30:49.498Z,48.25
2019-04-29T14:33:41.819Z,48.22
2019-04-29T14:36:29.063Z,48.65
2019-04-29T14:39:18.889Z,49.07
2019-04-29T14:42:12.658Z,49.05
2019-04-29T14:45:19.301Z,49.44
2019-04-29T14:48:41.266Z,48.38
2019-04-29T14:51:16.966Z,48.61
2019-04-29T14:54:05.704Z,49.49
2019-04-29T14:56:53.775Z,49.06
2019-04-29T14:59:41.651Z,49.03
2019-04-29T15:02:29.973Z,49.41
2019-04-29T15:05:17.324Z,49.73
2019-04-29T15:08:04.836Z,48.83
2019-04-29T15:10:53.940Z,48.96
2019-04-29T15:13:43.189Z,49.64
2019-04-29T15:16:36.336Z,48.43
2019-04-29T15:19:43.802Z,50.05
2019-04-29T15:22:33.892Z,50.31
2019-04-29T15:25:22.590Z,49.16
2019-04-29T15:28:10.019Z,49.24
2019-04-29T15:30:57.730Z,49.92
2019-04-29T15:33:45.134Z,50.61
2019-04-29T15:36:34.922Z,51.33
2019-04-29T15:39:24.531Z,51.93
2019-04-29T15:42:10.295Z,52.28
2019-04-29T15:44:57.719Z,52.11
2019-04-29T15:47:46.983Z,54.16
2019-04-29T15:50:37.132Z,55.17
2019-04-29T15:53:23.770Z,52.94
2019-04-29T15:56:27.820Z,51.57
2019-04-29T15:59:08.003Z,52.94
2019-04-29T16:01:50.203Z,53.70
2019-04-29T16:04:42.286Z,52.39
2019-04-29T16:07:38.503Z,52.07
2019-04-29T16:10:57.843Z,50.42
2019-04-29T16:13:47.957Z,50.43
2019-04-29T16:16:33.681Z,51.72
2019-04-29T16:19:21.375Z,51.85
2019-04-29T16:22:13.103Z,52.08
2019-04-29T16:24:59.609Z,52.55
2019-04-29T16:27:53.005Z,52.12
2019-04-29T16:30:36.536Z,51.69
2019-04-29T16:33:24.122Z,52.24
2019-04-29T16:36:11.960Z,52.99
2019-04-29T16:38:59.603Z,51.33
2019-04-29T16:42:05.133Z,51.48
2019-04-29T16:44:52.581Z,51.20
2019-04-29T16:47:47.521Z,50.19
2019-04-29T16:50:30.136Z,50.86
2019-04-29T16:53:17.905Z,51.09
2019-04-29T16:56:05.368Z,50.71
2019-04-29T16:58:53.072Z,49.36
2019-04-29T17:01:40.680Z,48.70
2019-04-29T17:04:27.962Z,49.90
2019-04-29T17:07:16.878Z,49.68
2019-04-29T17:10:17.473Z,48.47
2019-04-29T17:13:09.084Z,47.90
2019-04-29T17:15:54.164Z,47.12
2019-04-29T17:18:41.691Z,47.21
2019-04-29T17:21:29.583Z,47.84
2019-04-29T17:24:16.734Z,47.77
2019-04-29T17:27:16.728Z,50.51
2019-04-29T17:30:27.449Z,51.23
2019-04-29T17:33:28.337Z,51.57
2019-04-29T17:36:11.425Z,52.62
2019-04-29T17:38:59.080Z,52.01
2019-04-29T17:41:46.875Z,53.14
2019-04-29T17:44:52.253Z,52.84
2019-04-29T17:47:52.970Z,53.62
2019-04-29T17:50:48.161Z,54.72
2019-04-29T17:53:40.675Z,54.55
2019-04-29T17:56:40.992Z,54.19
2019-04-29T18:00:00.539Z,54.85
2019-04-29T18:03:10.232Z,55.91
2019-04-29T18:06:10.873Z,57.04
2019-04-29T18:09:29.675Z,57.37
2019-04-29T18:12:21.220Z,57.34
2019-04-29T18:15:14.973Z,57.73
2019-04-29T18:18:07.126Z,57.90
2019-04-29T18:21:08.012Z,58.13
2019-04-29T18:24:09.384Z,58.77
2019-04-29T18:27:02.403Z,58.89
2019-04-29T18:29:50.330Z,58.40
2019-04-29T18:32:42.309Z,58.29
2019-04-29T18:35:27.166Z,58.45
2019-04-29T18:38:15.704Z,58.28
2019-04-29T18:41:03.111Z,58.43
2019-04-29T18:43:50.730Z,59.04
2019-04-29T18:46:38.430Z,59.17
2019-04-29T18:49:26.113Z,59.01
2019-04-29T18:52:23.847Z,59.78
2019-04-29T18:55:02.832Z,60.38
2019-04-29T18:57:50.224Z,60.66
2019-04-29T19:00:38.020Z,60.70
2019-04-29T19:03:42.876Z,60.97
2019-04-29T19:06:30.710Z,61.47
2019-04-29T19:09:20.804Z,61.71
2019-04-29T19:12:08.151Z,60.72
2019-04-29T19:14:59.738Z,62.48
2019-04-29T19:17:58.713Z,62.68
2019-04-29T19:20:37.808Z,62.44
2019-04-29T19:23:29.488Z,61.88
2019-04-29T19:26:18.135Z,62.08
2019-04-29T19:29:06.181Z,61.92
2019-04-29T19:31:54.987Z,62.39
2019-04-29T19:34:43.546Z,62.81
2019-04-29T19:37:32.373Z,62.83
2019-04-29T19:40:20.368Z,62.52
2019-04-29T19:43:10.209Z,62.72
2019-04-29T19:45:57.477Z,63.01
2019-04-29T19:48:45.186Z,63.99
2019-04-29T19:51:32.848Z,64.51
2019-04-29T19:54:24.488Z,63.57
2019-04-29T19:57:09.782Z,63.81
2019-04-29T19:59:57.450Z,63.28
2019-04-29T20:02:48.292Z,62.96
2019-04-29T20:05:42.934Z,62.93
2019-04-29T20:08:49.799Z,62.56
2019-04-29T20:11:31.645Z,63.71
2019-04-29T20:14:19.399Z,63.91
2019-04-29T20:17:30.473Z,63.67
2019-04-29T20:20:36.911Z,64.19
2019-04-29T20:23:24.857Z,64.17
2019-04-29T20:26:15.451Z,63.99
2019-04-29T20:28:58.374Z,63.99
2019-04-29T20:31:51.474Z,63.62
2019-04-29T20:34:36.168Z,63.85
2019-04-29T20:37:23.807Z,63.86
2019-04-29T20:40:11.556Z,63.48
2019-04-29T20:42:59.401Z,63.42
2019-04-29T20:45:46.687Z,63.51
2019-04-29T20:48:36.752Z,63.07
2019-04-29T20:51:28.498Z,63.33
2019-04-29T20:54:19.386Z,62.71
2019-04-29T20:57:17.335Z,63.12
2019-04-29T20:59:55.593Z,63.18
2019-04-29T21:02:42.805Z,62.95
2019-04-29T21:05:31.033Z,63.24
2019-04-29T21:08:19.335Z,63.64
2019-04-29T21:11:14.274Z,63.65
2019-04-29T21:14:20.669Z,63.61
2019-04-29T21:17:10.963Z,63.71
2019-04-29T21:19:57.350Z,63.53
2019-04-29T21:22:45.561Z,63.67
2019-04-29T21:25:35.398Z,63.88
2019-04-29T21:28:23.382Z,63.60
2019-04-29T21:31:16.577Z,63.16
2019-04-29T21:34:01.236Z,63.29
2019-04-29T21:37:06.565Z,63.29
2019-04-29T21:40:08.858Z,63.02
2019-04-29T21:42:59.052Z,63.01
2019-04-29T21:45:48.356Z,63.09
2019-04-29T21:48:37.329Z,63.03
2019-04-29T21:51:25.565Z,62.98
2019-04-29T21:54:14.195Z,63.30
2019-04-29T21:57:02.456Z,62.86
2019-04-29T21:59:49.568Z,63.03
2019-04-29T22:02:36.736Z,63.10
2019-04-29T22:05:25.119Z,62.54
2019-04-29T22:08:16.152Z,62.40
2019-04-29T22:11:04.774Z,62.97
2019-04-29T22:13:51.015Z,62.80
2019-04-29T22:16:38.441Z,62.48
2019-04-29T22:19:28.048Z,62.56
2019-04-29T22:22:15.403Z,62.48
2019-04-29T22:25:05.755Z,62.51
2019-04-29T22:27:55.266Z,62.53
2019-04-29T22:30:42.595Z,62.47
2019-04-29T22:33:34.834Z,62.66
2019-04-29T22:36:20.626Z,61.76
2019-04-29T22:39:08.286Z,62.01
2019-04-29T22:42:14.058Z,62.39
2019-04-29T22:45:01.580Z,62.47
2019-04-29T22:47:49.107Z,61.74
2019-04-29T22:50:38.231Z,61.84
2019-04-29T22:53:25.645Z,62.53
2019-04-29T22:56:14.131Z,62.54
2019-04-29T22:59:02.596Z,62.09
2019-04-29T23:01:50.752Z,62.41
2019-04-29T23:04:38.145Z,62.82
2019-04-29T23:07:25.942Z,63.67
2019-04-29T23:10:19.878Z,62.38
2019-04-29T23:13:02.854Z,61.92
2019-04-29T23:15:53.813Z,62.01
2019-04-29T23:18:42.023Z,61.88
2019-04-29T23:21:47.305Z,61.95
2019-04-29T23:24:57.009Z,62.01
2019-04-29T23:27:48.486Z,62.03
2019-04-29T23:30:33.846Z,61.66
2019-04-29T23:33:23.924Z,61.33
2019-04-29T23:36:14.107Z,61.24
2019-04-29T23:38:59.987Z,61.01
2019-04-29T23:41:47.458Z,61.18
2019-04-29T23:44:37.834Z,60.87
2019-04-29T23:47:25.768Z,60.95
2019-04-29T23:50:18.161Z,61.04
2019-04-29T23:53:02.787Z,61.19
2019-04-29T23:55:50.271Z,61.66
2019-04-29T23:58:54.981Z,62.48
